sensor_id;sensor_type;location;lat;lon;timestamp;P1;durP1;ratioP1;P2;durP2;ratioP2
7531;SDS011;3807;49.030;8.714;2023-10-13T00:01:23;9.63;;;6.07;;
7531;SDS011;3807;49.030;8.714;2023-10-13T00:03:49;10.73;;;6.37;;
7531;SDS011;3807;49.030;8.714;2023-10-13T00:06:17;12.53;;;6.20;;
7531;SDS011;3807;49.030;8.714;2023-10-13T00:08:43;9.10;;;6.40;;
7531;SDS011;3807;49.030;8.714;2023-10-13T00:11:15;10.23;;;6.13;;
7531;SDS011;3807;49.030;8.714;2023-10-13T00:13:41;11.53;;;5.97;;
7531;SDS011;3807;49.030;8.714;2023-10-13T00:16:19;12.37;;;6.60;;
7531;SDS011;3807;49.030;8.714;2023-10-13T00:18:52;12.23;;;6.60;;
7531;SDS011;3807;49.030;8.714;2023-10-13T00:21:22;9.47;;;6.67;;
7531;SDS011;3807;49.030;8.714;2023-10-13T00:23:58;13.13;;;6.23;;
7531;SDS011;3807;49.030;8.714;2023-10-13T00:26:26;9.60;;;5.77;;
7531;SDS011;3807;49.030;8.714;2023-10-13T00:28:53;8.53;;;6.00;;
7531;SDS011;3807;49.030;8.714;2023-10-13T00:31:38;9.77;;;5.70;;
7531;SDS011;3807;49.030;8.714;2023-10-13T00:34:08;14.63;;;6.07;;
7531;SDS011;3807;49.030;8.714;2023-10-13T00:36:45;7.17;;;5.73;;
7531;SDS011;3807;49.030;8.714;2023-10-13T00:39:14;9.77;;;5.40;;
7531;SDS011;3807;49.030;8.714;2023-10-13T00:41:43;10.63;;;5.83;;
7531;SDS011;3807;49.030;8.714;2023-10-13T00:44:22;10.20;;;5.90;;
7531;SDS011;3807;49.030;8.714;2023-10-13T00:47:03;18.13;;;6.13;;
7531;SDS011;3807;49.030;8.714;2023-10-13T00:49:32;9.87;;;5.43;;
7531;SDS011;3807;49.030;8.714;2023-10-13T00:52:01;13.13;;;6.13;;
7531;SDS011;3807;49.030;8.714;2023-10-13T00:54:26;8.83;;;5.20;;
7531;SDS011;3807;49.030;8.714;2023-10-13T00:56:52;8.73;;;5.63;;
7531;SDS011;3807;49.030;8.714;2023-10-13T00:59:29;12.03;;;6.47;;
7531;SDS011;3807;49.030;8.714;2023-10-13T01:01:59;13.57;;;6.57;;
7531;SDS011;3807;49.030;8.714;2023-10-13T01:04:44;8.10;;;5.83;;
7531;SDS011;3807;49.030;8.714;2023-10-13T01:07:11;12.03;;;6.47;;
7531;SDS011;3807;49.030;8.714;2023-10-13T01:09:40;10.67;;;5.30;;
7531;SDS011;3807;49.030;8.714;2023-10-13T01:12:07;14.13;;;6.07;;
7531;SDS011;3807;49.030;8.714;2023-10-13T01:14:33;14.67;;;6.23;;
7531;SDS011;3807;49.030;8.714;2023-10-13T01:17:00;13.63;;;5.83;;
7531;SDS011;3807;49.030;8.714;2023-10-13T01:19:26;11.30;;;6.37;;
7531;SDS011;3807;49.030;8.714;2023-10-13T01:21:53;11.33;;;6.07;;
7531;SDS011;3807;49.030;8.714;2023-10-13T01:24:27;9.90;;;5.73;;
7531;SDS011;3807;49.030;8.714;2023-10-13T01:26:56;9.47;;;5.50;;
7531;SDS011;3807;49.030;8.714;2023-10-13T01:29:21;15.83;;;5.77;;
7531;SDS011;3807;49.030;8.714;2023-10-13T01:31:54;9.87;;;5.80;;
7531;SDS011;3807;49.030;8.714;2023-10-13T01:34:20;11.43;;;6.07;;
7531;SDS011;3807;49.030;8.714;2023-10-13T01:36:49;10.43;;;5.93;;
7531;SDS011;3807;49.030;8.714;2023-10-13T01:39:19;11.27;;;6.00;;
7531;SDS011;3807;49.030;8.714;2023-10-13T01:41:46;11.03;;;6.03;;
7531;SDS011;3807;49.030;8.714;2023-10-13T01:44:11;9.87;;;5.77;;
7531;SDS011;3807;49.030;8.714;2023-10-13T01:46:37;8.57;;;5.27;;
7531;SDS011;3807;49.030;8.714;2023-10-13T01:49:03;12.90;;;6.57;;
7531;SDS011;3807;49.030;8.714;2023-10-13T01:51:28;10.07;;;5.67;;
7531;SDS011;3807;49.030;8.714;2023-10-13T01:53:54;10.47;;;6.43;;
7531;SDS011;3807;49.030;8.714;2023-10-13T01:56:23;9.47;;;5.93;;
7531;SDS011;3807;49.030;8.714;2023-10-13T01:58:49;14.90;;;6.10;;
7531;SDS011;3807;49.030;8.714;2023-10-13T02:01:14;18.13;;;6.40;;
7531;SDS011;3807;49.030;8.714;2023-10-13T02:03:51;13.23;;;5.73;;
7531;SDS011;3807;49.030;8.714;2023-10-13T02:06:26;9.20;;;5.80;;
7531;SDS011;3807;49.030;8.714;2023-10-13T02:08:58;8.57;;;5.17;;
7531;SDS011;3807;49.030;8.714;2023-10-13T02:11:53;11.77;;;6.53;;
7531;SDS011;3807;49.030;8.714;2023-10-13T02:14:19;14.50;;;6.20;;
7531;SDS011;3807;49.030;8.714;2023-10-13T02:16:47;11.30;;;5.97;;
7531;SDS011;3807;49.030;8.714;2023-10-13T02:19:15;12.93;;;5.90;;
7531;SDS011;3807;49.030;8.714;2023-10-13T02:21:44;10.53;;;6.03;;
7531;SDS011;3807;49.030;8.714;2023-10-13T02:24:10;12.67;;;6.07;;
7531;SDS011;3807;49.030;8.714;2023-10-13T02:26:42;10.40;;;6.07;;
7531;SDS011;3807;49.030;8.714;2023-10-13T02:29:09;11.17;;;5.80;;
7531;SDS011;3807;49.030;8.714;2023-10-13T02:31:42;9.40;;;5.70;;
7531;SDS011;3807;49.030;8.714;2023-10-13T02:34:08;11.53;;;5.70;;
7531;SDS011;3807;49.030;8.714;2023-10-13T02:36:34;15.33;;;7.33;;
7531;SDS011;3807;49.030;8.714;2023-10-13T02:39:03;14.87;;;6.23;;
7531;SDS011;3807;49.030;8.714;2023-10-13T02:41:33;16.07;;;8.00;;
7531;SDS011;3807;49.030;8.714;2023-10-13T02:44:02;11.23;;;5.97;;
7531;SDS011;3807;49.030;8.714;2023-10-13T02:46:31;12.17;;;5.97;;
7531;SDS011;3807;49.030;8.714;2023-10-13T02:49:00;11.20;;;5.63;;
7531;SDS011;3807;49.030;8.714;2023-10-13T02:51:27;10.47;;;5.57;;
7531;SDS011;3807;49.030;8.714;2023-10-13T02:54:02;9.27;;;5.73;;
7531;SDS011;3807;49.030;8.714;2023-10-13T02:56:34;14.00;;;6.13;;
7531;SDS011;3807;49.030;8.714;2023-10-13T02:59:00;8.97;;;5.10;;
7531;SDS011;3807;49.030;8.714;2023-10-13T03:01:30;9.43;;;6.23;;
7531;SDS011;3807;49.030;8.714;2023-10-13T03:03:59;10.87;;;6.07;;
7531;SDS011;3807;49.030;8.714;2023-10-13T03:06:25;8.07;;;5.10;;
7531;SDS011;3807;49.030;8.714;2023-10-13T03:09:07;8.90;;;5.43;;
7531;SDS011;3807;49.030;8.714;2023-10-13T03:11:43;11.33;;;5.80;;
7531;SDS011;3807;49.030;8.714;2023-10-13T03:17:06;10.33;;;5.20;;
7531;SDS011;3807;49.030;8.714;2023-10-13T03:19:41;11.50;;;5.83;;
7531;SDS011;3807;49.030;8.714;2023-10-13T03:22:11;15.33;;;5.77;;
7531;SDS011;3807;49.030;8.714;2023-10-13T03:24:37;10.33;;;5.60;;
7531;SDS011;3807;49.030;8.714;2023-10-13T03:27:13;9.90;;;5.67;;
7531;SDS011;3807;49.030;8.714;2023-10-13T03:29:43;8.77;;;5.00;;
7531;SDS011;3807;49.030;8.714;2023-10-13T03:32:10;9.67;;;5.60;;
7531;SDS011;3807;49.030;8.714;2023-10-13T03:34:37;10.47;;;5.47;;
7531;SDS011;3807;49.030;8.714;2023-10-13T03:37:11;12.10;;;5.63;;
7531;SDS011;3807;49.030;8.714;2023-10-13T03:39:43;10.33;;;5.90;;
7531;SDS011;3807;49.030;8.714;2023-10-13T03:42:10;9.10;;;5.73;;
7531;SDS011;3807;49.030;8.714;2023-10-13T03:44:43;8.33;;;4.97;;
7531;SDS011;3807;49.030;8.714;2023-10-13T03:47:11;9.20;;;5.23;;
7531;SDS011;3807;49.030;8.714;2023-10-13T03:49:43;8.10;;;5.17;;
7531;SDS011;3807;49.030;8.714;2023-10-13T03:52:09;8.87;;;5.17;;
7531;SDS011;3807;49.030;8.714;2023-10-13T03:54:38;12.57;;;5.40;;
7531;SDS011;3807;49.030;8.714;2023-10-13T03:57:05;11.57;;;6.20;;
7531;SDS011;3807;49.030;8.714;2023-10-13T03:59:36;9.80;;;5.70;;
7531;SDS011;3807;49.030;8.714;2023-10-13T04:02:02;8.97;;;5.43;;
7531;SDS011;3807;49.030;8.714;2023-10-13T04:04:36;7.77;;;4.60;;
7531;SDS011;3807;49.030;8.714;2023-10-13T04:07:08;14.37;;;5.80;;
7531;SDS011;3807;49.030;8.714;2023-10-13T04:09:34;12.70;;;5.83;;
7531;SDS011;3807;49.030;8.714;2023-10-13T04:12:13;10.27;;;5.80;;
7531;SDS011;3807;49.030;8.714;2023-10-13T04:14:42;13.23;;;5.30;;
7531;SDS011;3807;49.030;8.714;2023-10-13T04:17:38;9.53;;;5.53;;
7531;SDS011;3807;49.030;8.714;2023-10-13T04:20:09;10.33;;;5.87;;
7531;SDS011;3807;49.030;8.714;2023-10-13T04:27:57;11.73;;;5.70;;
7531;SDS011;3807;49.030;8.714;2023-10-13T04:30:47;8.77;;;5.47;;
7531;SDS011;3807;49.030;8.714;2023-10-13T04:33:19;9.90;;;5.87;;
7531;SDS011;3807;49.030;8.714;2023-10-13T04:36:00;10.97;;;5.70;;
7531;SDS011;3807;49.030;8.714;2023-10-13T04:38:51;11.47;;;5.13;;
7531;SDS011;3807;49.030;8.714;2023-10-13T04:41:23;10.80;;;5.03;;
7531;SDS011;3807;49.030;8.714;2023-10-13T04:43:50;11.17;;;5.50;;
7531;SDS011;3807;49.030;8.714;2023-10-13T04:46:22;15.17;;;5.80;;
7531;SDS011;3807;49.030;8.714;2023-10-13T04:49:00;10.77;;;6.23;;
7531;SDS011;3807;49.030;8.714;2023-10-13T04:51:34;20.93;;;9.53;;
7531;SDS011;3807;49.030;8.714;2023-10-13T04:54:19;31.33;;;13.63;;
7531;SDS011;3807;49.030;8.714;2023-10-13T04:56:51;28.90;;;13.17;;
7531;SDS011;3807;49.030;8.714;2023-10-13T04:59:39;24.03;;;12.67;;
7531;SDS011;3807;49.030;8.714;2023-10-13T05:02:23;23.97;;;10.53;;
7531;SDS011;3807;49.030;8.714;2023-10-13T05:05:03;17.73;;;9.70;;
7531;SDS011;3807;49.030;8.714;2023-10-13T05:07:29;19.57;;;9.63;;
7531;SDS011;3807;49.030;8.714;2023-10-13T05:10:12;38.00;;;15.87;;
7531;SDS011;3807;49.030;8.714;2023-10-13T05:12:56;33.70;;;15.73;;
7531;SDS011;3807;49.030;8.714;2023-10-13T05:15:47;38.33;;;15.87;;
7531;SDS011;3807;49.030;8.714;2023-10-13T05:18:32;26.57;;;12.73;;
7531;SDS011;3807;49.030;8.714;2023-10-13T05:21:16;23.63;;;11.30;;
7531;SDS011;3807;49.030;8.714;2023-10-13T05:24:00;21.30;;;9.80;;
7531;SDS011;3807;49.030;8.714;2023-10-13T05:26:44;22.33;;;7.50;;
7531;SDS011;3807;49.030;8.714;2023-10-13T05:29:28;16.93;;;7.40;;
7531;SDS011;3807;49.030;8.714;2023-10-13T05:32:12;13.43;;;6.93;;
7531;SDS011;3807;49.030;8.714;2023-10-13T05:34:56;15.70;;;7.20;;
7531;SDS011;3807;49.030;8.714;2023-10-13T05:37:40;13.03;;;6.97;;
7531;SDS011;3807;49.030;8.714;2023-10-13T05:40:24;12.70;;;6.80;;
7531;SDS011;3807;49.030;8.714;2023-10-13T05:43:08;14.67;;;5.90;;
7531;SDS011;3807;49.030;8.714;2023-10-13T05:45:52;18.83;;;6.37;;
7531;SDS011;3807;49.030;8.714;2023-10-13T05:48:36;15.37;;;6.33;;
7531;SDS011;3807;49.030;8.714;2023-10-13T05:51:19;8.90;;;4.90;;
7531;SDS011;3807;49.030;8.714;2023-10-13T05:53:57;11.33;;;5.37;;
7531;SDS011;3807;49.030;8.714;2023-10-13T05:56:38;12.10;;;5.97;;
7531;SDS011;3807;49.030;8.714;2023-10-13T05:59:42;14.03;;;5.00;;
7531;SDS011;3807;49.030;8.714;2023-10-13T06:02:26;19.60;;;4.93;;
7531;SDS011;3807;49.030;8.714;2023-10-13T06:05:11;13.20;;;6.40;;
7531;SDS011;3807;49.030;8.714;2023-10-13T06:07:56;13.80;;;5.23;;
7531;SDS011;3807;49.030;8.714;2023-10-13T06:10:41;21.40;;;5.67;;
7531;SDS011;3807;49.030;8.714;2023-10-13T06:13:25;15.73;;;5.70;;
7531;SDS011;3807;49.030;8.714;2023-10-13T06:16:13;14.07;;;5.30;;
7531;SDS011;3807;49.030;8.714;2023-10-13T06:19:00;17.60;;;6.33;;
7531;SDS011;3807;49.030;8.714;2023-10-13T06:21:55;16.57;;;5.53;;
7531;SDS011;3807;49.030;8.714;2023-10-13T06:24:49;15.57;;;4.67;;
7531;SDS011;3807;49.030;8.714;2023-10-13T06:27:33;18.30;;;5.87;;
7531;SDS011;3807;49.030;8.714;2023-10-13T06:30:17;11.27;;;4.93;;
7531;SDS011;3807;49.030;8.714;2023-10-13T06:32:42;10.20;;;5.30;;
7531;SDS011;3807;49.030;8.714;2023-10-13T06:35:08;10.57;;;4.60;;
7531;SDS011;3807;49.030;8.714;2023-10-13T06:37:33;10.33;;;4.83;;
7531;SDS011;3807;49.030;8.714;2023-10-13T06:40:03;6.33;;;4.13;;
7531;SDS011;3807;49.030;8.714;2023-10-13T06:42:48;13.27;;;5.13;;
7531;SDS011;3807;49.030;8.714;2023-10-13T06:45:13;11.33;;;5.53;;
7531;SDS011;3807;49.030;8.714;2023-10-13T06:47:41;10.03;;;5.20;;
7531;SDS011;3807;49.030;8.714;2023-10-13T06:50:14;36.93;;;7.10;;
7531;SDS011;3807;49.030;8.714;2023-10-13T06:52:49;32.50;;;6.83;;
7531;SDS011;3807;49.030;8.714;2023-10-13T06:55:16;45.80;;;7.63;;
7531;SDS011;3807;49.030;8.714;2023-10-13T06:57:52;31.73;;;8.30;;
7531;SDS011;3807;49.030;8.714;2023-10-13T07:00:18;25.33;;;6.30;;
7531;SDS011;3807;49.030;8.714;2023-10-13T07:02:54;16.17;;;6.40;;
7531;SDS011;3807;49.030;8.714;2023-10-13T07:05:33;34.97;;;6.13;;
7531;SDS011;3807;49.030;8.714;2023-10-13T07:08:06;25.90;;;6.67;;
7531;SDS011;3807;49.030;8.714;2023-10-13T07:10:32;17.30;;;5.53;;
7531;SDS011;3807;49.030;8.714;2023-10-13T07:13:10;18.50;;;5.43;;
7531;SDS011;3807;49.030;8.714;2023-10-13T07:15:38;15.30;;;4.40;;
7531;SDS011;3807;49.030;8.714;2023-10-13T07:18:10;8.73;;;4.13;;
7531;SDS011;3807;49.030;8.714;2023-10-13T07:20:41;10.03;;;4.33;;
7531;SDS011;3807;49.030;8.714;2023-10-13T07:23:10;14.67;;;4.53;;
7531;SDS011;3807;49.030;8.714;2023-10-13T07:25:42;9.40;;;4.50;;
7531;SDS011;3807;49.030;8.714;2023-10-13T07:28:09;10.50;;;5.17;;
7531;SDS011;3807;49.030;8.714;2023-10-13T07:30:35;5.53;;;4.07;;
7531;SDS011;3807;49.030;8.714;2023-10-13T07:33:07;7.73;;;4.43;;
7531;SDS011;3807;49.030;8.714;2023-10-13T07:35:38;15.57;;;5.30;;
7531;SDS011;3807;49.030;8.714;2023-10-13T07:38:03;9.70;;;4.83;;
7531;SDS011;3807;49.030;8.714;2023-10-13T07:40:32;10.40;;;4.73;;
7531;SDS011;3807;49.030;8.714;2023-10-13T07:42:58;8.30;;;4.50;;
7531;SDS011;3807;49.030;8.714;2023-10-13T07:45:28;12.07;;;4.60;;
7531;SDS011;3807;49.030;8.714;2023-10-13T07:50:33;9.57;;;5.13;;
7531;SDS011;3807;49.030;8.714;2023-10-13T07:52:59;14.53;;;4.10;;
7531;SDS011;3807;49.030;8.714;2023-10-13T07:55:32;9.97;;;4.20;;
7531;SDS011;3807;49.030;8.714;2023-10-13T07:57:58;8.33;;;4.10;;
7531;SDS011;3807;49.030;8.714;2023-10-13T08:00:24;9.27;;;4.20;;
7531;SDS011;3807;49.030;8.714;2023-10-13T08:03:00;6.87;;;4.47;;
7531;SDS011;3807;49.030;8.714;2023-10-13T08:05:34;13.97;;;5.37;;
7531;SDS011;3807;49.030;8.714;2023-10-13T08:08:18;15.70;;;4.60;;
7531;SDS011;3807;49.030;8.714;2023-10-13T08:10:43;13.93;;;4.17;;
7531;SDS011;3807;49.030;8.714;2023-10-13T08:13:10;8.10;;;4.07;;
7531;SDS011;3807;49.030;8.714;2023-10-13T08:15:41;12.00;;;4.27;;
7531;SDS011;3807;49.030;8.714;2023-10-13T08:18:15;16.47;;;4.63;;
7531;SDS011;3807;49.030;8.714;2023-10-13T08:21:02;6.90;;;3.73;;
7531;SDS011;3807;49.030;8.714;2023-10-13T08:23:31;9.43;;;3.90;;
7531;SDS011;3807;49.030;8.714;2023-10-13T08:26:23;12.03;;;3.90;;
7531;SDS011;3807;49.030;8.714;2023-10-13T08:29:02;18.90;;;4.20;;
7531;SDS011;3807;49.030;8.714;2023-10-13T08:31:46;15.63;;;4.10;;
7531;SDS011;3807;49.030;8.714;2023-10-13T08:34:31;12.47;;;4.60;;
7531;SDS011;3807;49.030;8.714;2023-10-13T08:37:09;15.40;;;4.30;;
7531;SDS011;3807;49.030;8.714;2023-10-13T08:39:44;11.77;;;4.37;;
7531;SDS011;3807;49.030;8.714;2023-10-13T08:42:29;11.27;;;4.03;;
7531;SDS011;3807;49.030;8.714;2023-10-13T08:47:49;13.70;;;4.50;;
7531;SDS011;3807;49.030;8.714;2023-10-13T08:50:34;12.60;;;4.13;;
7531;SDS011;3807;49.030;8.714;2023-10-13T08:58:26;16.60;;;5.37;;
7531;SDS011;3807;49.030;8.714;2023-10-13T09:01:12;22.67;;;4.93;;
7531;SDS011;3807;49.030;8.714;2023-10-13T09:03:39;17.03;;;4.50;;
7531;SDS011;3807;49.030;8.714;2023-10-13T09:06:08;18.47;;;4.50;;
7531;SDS011;3807;49.030;8.714;2023-10-13T09:08:40;22.37;;;5.37;;
7531;SDS011;3807;49.030;8.714;2023-10-13T09:11:31;26.77;;;4.60;;
7531;SDS011;3807;49.030;8.714;2023-10-13T09:14:02;11.20;;;4.17;;
7531;SDS011;3807;49.030;8.714;2023-10-13T09:16:29;16.33;;;4.27;;
7531;SDS011;3807;49.030;8.714;2023-10-13T09:19:06;18.50;;;4.60;;
7531;SDS011;3807;49.030;8.714;2023-10-13T09:21:38;16.27;;;5.17;;
7531;SDS011;3807;49.030;8.714;2023-10-13T09:24:10;16.80;;;4.80;;
7531;SDS011;3807;49.030;8.714;2023-10-13T09:26:52;17.23;;;4.97;;
7531;SDS011;3807;49.030;8.714;2023-10-13T09:29:26;12.53;;;4.57;;
7531;SDS011;3807;49.030;8.714;2023-10-13T09:31:58;19.80;;;5.53;;
7531;SDS011;3807;49.030;8.714;2023-10-13T09:34:25;14.63;;;4.80;;
7531;SDS011;3807;49.030;8.714;2023-10-13T09:36:57;13.17;;;4.40;;
7531;SDS011;3807;49.030;8.714;2023-10-13T09:39:28;12.87;;;3.97;;
7531;SDS011;3807;49.030;8.714;2023-10-13T09:42:09;14.50;;;4.30;;
7531;SDS011;3807;49.030;8.714;2023-10-13T09:44:37;9.63;;;3.93;;
7531;SDS011;3807;49.030;8.714;2023-10-13T09:47:05;14.60;;;4.10;;
7531;SDS011;3807;49.030;8.714;2023-10-13T09:49:45;8.60;;;3.77;;
7531;SDS011;3807;49.030;8.714;2023-10-13T09:52:14;9.60;;;3.80;;
7531;SDS011;3807;49.030;8.714;2023-10-13T09:54:49;14.23;;;4.30;;
7531;SDS011;3807;49.030;8.714;2023-10-13T09:57:25;8.67;;;4.00;;
7531;SDS011;3807;49.030;8.714;2023-10-13T10:02:54;15.63;;;4.23;;
7531;SDS011;3807;49.030;8.714;2023-10-13T10:05:24;10.10;;;4.13;;
7531;SDS011;3807;49.030;8.714;2023-10-13T10:07:54;6.77;;;3.83;;
7531;SDS011;3807;49.030;8.714;2023-10-13T10:10:22;14.83;;;4.40;;
7531;SDS011;3807;49.030;8.714;2023-10-13T10:12:59;13.07;;;4.27;;
7531;SDS011;3807;49.030;8.714;2023-10-13T10:15:35;7.93;;;3.87;;
7531;SDS011;3807;49.030;8.714;2023-10-13T10:18:20;11.33;;;3.67;;
7531;SDS011;3807;49.030;8.714;2023-10-13T10:20:47;6.43;;;3.70;;
7531;SDS011;3807;49.030;8.714;2023-10-13T10:23:26;12.23;;;3.60;;
7531;SDS011;3807;49.030;8.714;2023-10-13T10:25:54;12.77;;;4.30;;
7531;SDS011;3807;49.030;8.714;2023-10-13T10:28:39;12.90;;;3.50;;
7531;SDS011;3807;49.030;8.714;2023-10-13T10:31:07;10.97;;;3.90;;
7531;SDS011;3807;49.030;8.714;2023-10-13T10:33:37;8.63;;;3.77;;
7531;SDS011;3807;49.030;8.714;2023-10-13T10:36:06;13.23;;;4.00;;
7531;SDS011;3807;49.030;8.714;2023-10-13T10:38:37;10.83;;;4.00;;
7531;SDS011;3807;49.030;8.714;2023-10-13T10:41:05;9.27;;;3.30;;
7531;SDS011;3807;49.030;8.714;2023-10-13T10:46:12;14.07;;;4.00;;
7531;SDS011;3807;49.030;8.714;2023-10-13T10:48:38;6.83;;;3.07;;
7531;SDS011;3807;49.030;8.714;2023-10-13T10:51:08;8.80;;;4.17;;
7531;SDS011;3807;49.030;8.714;2023-10-13T10:53:39;5.27;;;3.10;;
7531;SDS011;3807;49.030;8.714;2023-10-13T10:56:12;11.70;;;3.70;;
7531;SDS011;3807;49.030;8.714;2023-10-13T10:58:45;8.80;;;3.10;;
7531;SDS011;3807;49.030;8.714;2023-10-13T11:01:20;13.47;;;3.50;;
7531;SDS011;3807;49.030;8.714;2023-10-13T11:03:58;5.57;;;3.30;;
7531;SDS011;3807;49.030;8.714;2023-10-13T11:06:33;15.57;;;3.00;;
7531;SDS011;3807;49.030;8.714;2023-10-13T11:09:10;10.40;;;2.83;;
7531;SDS011;3807;49.030;8.714;2023-10-13T11:11:55;9.13;;;3.60;;
7531;SDS011;3807;49.030;8.714;2023-10-13T11:14:26;10.30;;;3.00;;
7531;SDS011;3807;49.030;8.714;2023-10-13T11:16:53;5.03;;;2.27;;
7531;SDS011;3807;49.030;8.714;2023-10-13T11:19:20;6.63;;;2.45;;
7531;SDS011;3807;49.030;8.714;2023-10-13T11:21:59;12.63;;;3.53;;
7531;SDS011;3807;49.030;8.714;2023-10-13T11:24:41;11.60;;;3.33;;
7531;SDS011;3807;49.030;8.714;2023-10-13T11:27:14;4.60;;;3.05;;
7531;SDS011;3807;49.030;8.714;2023-10-13T11:29:43;14.00;;;3.35;;
7531;SDS011;3807;49.030;8.714;2023-10-13T11:32:17;13.38;;;3.33;;
7531;SDS011;3807;49.030;8.714;2023-10-13T11:34:45;5.97;;;2.72;;
7531;SDS011;3807;49.030;8.714;2023-10-13T11:37:10;10.57;;;3.00;;
7531;SDS011;3807;49.030;8.714;2023-10-13T11:40:02;8.05;;;2.67;;
7531;SDS011;3807;49.030;8.714;2023-10-13T11:42:34;7.22;;;3.13;;
7531;SDS011;3807;49.030;8.714;2023-10-13T11:45:01;15.95;;;2.95;;
7531;SDS011;3807;49.030;8.714;2023-10-13T11:47:46;6.28;;;2.70;;
7531;SDS011;3807;49.030;8.714;2023-10-13T11:50:24;7.68;;;2.97;;
7531;SDS011;3807;49.030;8.714;2023-10-13T11:53:00;5.18;;;2.70;;
7531;SDS011;3807;49.030;8.714;2023-10-13T11:55:25;15.27;;;2.80;;
7531;SDS011;3807;49.030;8.714;2023-10-13T11:57:51;8.45;;;3.08;;
7531;SDS011;3807;49.030;8.714;2023-10-13T12:00:16;10.85;;;2.50;;
7531;SDS011;3807;49.030;8.714;2023-10-13T12:03:11;9.25;;;3.33;;
7531;SDS011;3807;49.030;8.714;2023-10-13T12:05:55;12.85;;;3.28;;
7531;SDS011;3807;49.030;8.714;2023-10-13T12:08:39;7.85;;;2.65;;
7531;SDS011;3807;49.030;8.714;2023-10-13T12:11:14;6.28;;;3.00;;
7531;SDS011;3807;49.030;8.714;2023-10-13T12:13:55;8.23;;;2.97;;
7531;SDS011;3807;49.030;8.714;2023-10-13T12:16:21;11.32;;;3.05;;
7531;SDS011;3807;49.030;8.714;2023-10-13T12:18:47;7.63;;;2.78;;
7531;SDS011;3807;49.030;8.714;2023-10-13T12:21:18;8.23;;;3.55;;
7531;SDS011;3807;49.030;8.714;2023-10-13T12:23:46;5.32;;;2.65;;
7531;SDS011;3807;49.030;8.714;2023-10-13T12:26:12;7.05;;;2.92;;
7531;SDS011;3807;49.030;8.714;2023-10-13T12:28:57;7.65;;;2.67;;
7531;SDS011;3807;49.030;8.714;2023-10-13T12:31:32;6.07;;;2.50;;
7531;SDS011;3807;49.030;8.714;2023-10-13T12:33:58;7.90;;;2.83;;
7531;SDS011;3807;49.030;8.714;2023-10-13T12:36:31;10.35;;;2.88;;
7531;SDS011;3807;49.030;8.714;2023-10-13T12:39:06;7.47;;;2.60;;
7531;SDS011;3807;49.030;8.714;2023-10-13T12:41:32;8.65;;;2.20;;
7531;SDS011;3807;49.030;8.714;2023-10-13T12:44:16;7.03;;;3.05;;
7531;SDS011;3807;49.030;8.714;2023-10-13T12:47:00;8.07;;;2.67;;
7531;SDS011;3807;49.030;8.714;2023-10-13T12:49:44;6.80;;;2.50;;
7531;SDS011;3807;49.030;8.714;2023-10-13T12:52:12;7.03;;;2.53;;
7531;SDS011;3807;49.030;8.714;2023-10-13T12:54:44;6.13;;;2.47;;
7531;SDS011;3807;49.030;8.714;2023-10-13T12:57:22;7.88;;;3.22;;
7531;SDS011;3807;49.030;8.714;2023-10-13T12:59:51;4.93;;;2.88;;
7531;SDS011;3807;49.030;8.714;2023-10-13T13:02:22;11.05;;;2.78;;
7531;SDS011;3807;49.030;8.714;2023-10-13T13:04:50;9.68;;;2.80;;
7531;SDS011;3807;49.030;8.714;2023-10-13T13:07:34;8.38;;;3.20;;
7531;SDS011;3807;49.030;8.714;2023-10-13T13:10:09;5.65;;;2.42;;
7531;SDS011;3807;49.030;8.714;2023-10-13T13:12:36;7.63;;;2.75;;
7531;SDS011;3807;49.030;8.714;2023-10-13T13:15:02;6.93;;;2.70;;
7531;SDS011;3807;49.030;8.714;2023-10-13T13:17:33;6.18;;;2.75;;
7531;SDS011;3807;49.030;8.714;2023-10-13T13:19:59;9.55;;;3.25;;
7531;SDS011;3807;49.030;8.714;2023-10-13T13:22:24;9.93;;;3.10;;
7531;SDS011;3807;49.030;8.714;2023-10-13T13:24:50;7.63;;;2.50;;
7531;SDS011;3807;49.030;8.714;2023-10-13T13:27:15;9.80;;;2.58;;
7531;SDS011;3807;49.030;8.714;2023-10-13T13:29:47;5.80;;;2.72;;
7531;SDS011;3807;49.030;8.714;2023-10-13T13:32:12;6.97;;;2.75;;
7531;SDS011;3807;49.030;8.714;2023-10-13T13:34:48;7.60;;;2.88;;
7531;SDS011;3807;49.030;8.714;2023-10-13T13:37:29;4.47;;;2.58;;
7531;SDS011;3807;49.030;8.714;2023-10-13T13:39:55;7.53;;;2.65;;
7531;SDS011;3807;49.030;8.714;2023-10-13T13:42:21;7.90;;;2.80;;
7531;SDS011;3807;49.030;8.714;2023-10-13T13:44:47;7.82;;;2.40;;
7531;SDS011;3807;49.030;8.714;2023-10-13T13:47:12;6.47;;;3.00;;
7531;SDS011;3807;49.030;8.714;2023-10-13T13:49:39;10.88;;;3.30;;
7531;SDS011;3807;49.030;8.714;2023-10-13T13:52:16;5.72;;;2.92;;
7531;SDS011;3807;49.030;8.714;2023-10-13T13:54:46;5.00;;;2.33;;
7531;SDS011;3807;49.030;8.714;2023-10-13T13:57:12;11.60;;;2.85;;
7531;SDS011;3807;49.030;8.714;2023-10-13T13:59:38;7.53;;;2.83;;
7531;SDS011;3807;49.030;8.714;2023-10-13T14:02:04;4.32;;;2.50;;
7531;SDS011;3807;49.030;8.714;2023-10-13T14:04:44;5.25;;;2.38;;
7531;SDS011;3807;49.030;8.714;2023-10-13T14:07:11;6.55;;;2.90;;
7531;SDS011;3807;49.030;8.714;2023-10-13T14:09:40;6.38;;;2.38;;
7531;SDS011;3807;49.030;8.714;2023-10-13T14:12:08;6.68;;;2.80;;
7531;SDS011;3807;49.030;8.714;2023-10-13T14:14:52;5.22;;;2.80;;
7531;SDS011;3807;49.030;8.714;2023-10-13T14:17:26;8.60;;;2.67;;
7531;SDS011;3807;49.030;8.714;2023-10-13T14:19:55;6.32;;;2.42;;
7531;SDS011;3807;49.030;8.714;2023-10-13T14:22:21;5.10;;;2.85;;
7531;SDS011;3807;49.030;8.714;2023-10-13T14:24:50;8.48;;;2.60;;
7531;SDS011;3807;49.030;8.714;2023-10-13T14:27:19;6.35;;;3.03;;
7531;SDS011;3807;49.030;8.714;2023-10-13T14:29:47;3.60;;;2.20;;
7531;SDS011;3807;49.030;8.714;2023-10-13T14:32:13;7.55;;;2.92;;
7531;SDS011;3807;49.030;8.714;2023-10-13T14:34:46;6.43;;;3.10;;
7531;SDS011;3807;49.030;8.714;2023-10-13T14:37:19;7.50;;;2.55;;
7531;SDS011;3807;49.030;8.714;2023-10-13T14:39:57;4.75;;;2.45;;
7531;SDS011;3807;49.030;8.714;2023-10-13T14:42:27;6.07;;;2.83;;
7531;SDS011;3807;49.030;8.714;2023-10-13T14:44:53;4.75;;;2.90;;
7531;SDS011;3807;49.030;8.714;2023-10-13T14:47:22;7.68;;;3.15;;
7531;SDS011;3807;49.030;8.714;2023-10-13T14:49:58;3.78;;;2.47;;
7531;SDS011;3807;49.030;8.714;2023-10-13T14:52:25;6.60;;;2.53;;
7531;SDS011;3807;49.030;8.714;2023-10-13T14:54:51;4.63;;;2.38;;
7531;SDS011;3807;49.030;8.714;2023-10-13T14:57:23;5.43;;;2.65;;
7531;SDS011;3807;49.030;8.714;2023-10-13T14:59:55;4.28;;;2.88;;
7531;SDS011;3807;49.030;8.714;2023-10-13T15:02:22;7.63;;;2.50;;
7531;SDS011;3807;49.030;8.714;2023-10-13T15:04:47;5.68;;;2.67;;
7531;SDS011;3807;49.030;8.714;2023-10-13T15:07:13;6.70;;;2.70;;
7531;SDS011;3807;49.030;8.714;2023-10-13T15:09:43;6.60;;;2.40;;
7531;SDS011;3807;49.030;8.714;2023-10-13T15:12:12;5.18;;;2.40;;
7531;SDS011;3807;49.030;8.714;2023-10-13T15:14:37;7.10;;;2.80;;
7531;SDS011;3807;49.030;8.714;2023-10-13T15:17:04;5.32;;;2.13;;
7531;SDS011;3807;49.030;8.714;2023-10-13T15:19:31;9.57;;;2.45;;
7531;SDS011;3807;49.030;8.714;2023-10-13T15:22:01;9.70;;;2.40;;
7531;SDS011;3807;49.030;8.714;2023-10-13T15:24:27;5.60;;;2.75;;
7531;SDS011;3807;49.030;8.714;2023-10-13T15:26:53;7.32;;;2.55;;
7531;SDS011;3807;49.030;8.714;2023-10-13T15:29:27;4.95;;;2.35;;
7531;SDS011;3807;49.030;8.714;2023-10-13T15:32:00;8.90;;;2.70;;
7531;SDS011;3807;49.030;8.714;2023-10-13T15:34:27;9.00;;;1.98;;
7531;SDS011;3807;49.030;8.714;2023-10-13T15:36:54;5.20;;;2.42;;
7531;SDS011;3807;49.030;8.714;2023-10-13T15:39:21;3.38;;;1.95;;
7531;SDS011;3807;49.030;8.714;2023-10-13T15:41:53;6.68;;;2.00;;
7531;SDS011;3807;49.030;8.714;2023-10-13T15:44:20;4.97;;;2.50;;
7531;SDS011;3807;49.030;8.714;2023-10-13T15:46:49;3.65;;;1.88;;
7531;SDS011;3807;49.030;8.714;2023-10-13T15:49:17;6.57;;;2.05;;
7531;SDS011;3807;49.030;8.714;2023-10-13T15:51:43;6.90;;;2.50;;
7531;SDS011;3807;49.030;8.714;2023-10-13T15:54:08;5.68;;;2.15;;
7531;SDS011;3807;49.030;8.714;2023-10-13T15:56:46;4.78;;;2.03;;
7531;SDS011;3807;49.030;8.714;2023-10-13T15:59:13;4.00;;;2.10;;
7531;SDS011;3807;49.030;8.714;2023-10-13T16:01:39;5.60;;;2.50;;
7531;SDS011;3807;49.030;8.714;2023-10-13T16:04:06;3.53;;;2.00;;
7531;SDS011;3807;49.030;8.714;2023-10-13T16:06:45;5.88;;;1.83;;